createdAt,value
2023-05-05T00:02:07.548Z,12.18
2023-05-05T00:04:34.890Z,12.03
2023-05-05T00:07:02.252Z,11.47
2023-05-05T00:09:29.508Z,11.28
2023-05-05T00:11:56.852Z,11.20
2023-05-05T00:14:23.853Z,11.04
2023-05-05T00:16:51.199Z,10.85
2023-05-05T00:19:18.338Z,10.74
2023-05-05T00:21:45.683Z,10.57
2023-05-05T00:24:12.999Z,10.50
2023-05-05T00:26:40.008Z,10.41
2023-05-05T00:29:07.926Z,10.15
2023-05-05T00:31:35.377Z,9.51
2023-05-05T00:34:02.817Z,9.18
2023-05-05T00:36:30.212Z,9.03
2023-05-05T00:38:58.054Z,8.69
2023-05-05T00:41:25.156Z,8.71
2023-05-05T00:43:52.357Z,8.90
2023-05-05T00:46:26.861Z,8.50
2023-05-05T00:48:54.545Z,8.35
2023-05-05T00:51:22.525Z,7.93
2023-05-05T00:53:50.364Z,8.01
2023-05-05T00:56:18.227Z,7.80
2023-05-05T00:58:45.921Z,7.67
2023-05-05T01:01:13.409Z,7.84
2023-05-05T01:03:44.002Z,8.08
2023-05-05T01:06:23.605Z,7.91
2023-05-05T01:09:22.734Z,8.54
2023-05-05T01:12:45.198Z,8.80
2023-05-05T01:15:21.039Z,8.99
2023-05-05T01:18:19.984Z,8.24
2023-05-05T01:21:06.608Z,8.13
2023-05-05T01:23:46.093Z,7.79
2023-05-05T01:26:32.072Z,7.29
2023-05-05T01:29:17.452Z,7.48
2023-05-05T01:31:54.924Z,6.86
2023-05-05T01:34:28.210Z,7.23
2023-05-05T01:37:12.565Z,7.20
2023-05-05T01:39:40.631Z,6.96
2023-05-05T01:42:09.290Z,7.05
2023-05-05T01:44:37.088Z,6.89
2023-05-05T01:47:04.576Z,6.83
2023-05-05T01:49:32.014Z,6.58
2023-05-05T01:51:59.385Z,7.04
2023-05-05T01:54:28.269Z,6.71
2023-05-05T01:56:56.487Z,6.96
2023-05-05T01:59:24.157Z,7.29
2023-05-05T02:01:52.147Z,7.18
2023-05-05T02:04:22.257Z,7.23
2023-05-05T02:06:51.214Z,7.25
2023-05-05T02:09:18.566Z,7.14
2023-05-05T02:11:45.622Z,7.23
2023-05-05T02:14:13.108Z,7.50
2023-05-05T02:16:41.056Z,7.83
2023-05-05T02:19:08.203Z,8.01
2023-05-05T02:21:35.283Z,7.85
2023-05-05T02:24:02.698Z,8.16
2023-05-05T02:26:30.077Z,8.47
2023-05-05T02:29:04.507Z,8.75
2023-05-05T02:31:31.841Z,9.17
2023-05-05T02:34:01.189Z,9.83
2023-05-05T02:36:33.564Z,9.71
2023-05-05T02:39:07.248Z,9.76
2023-05-05T02:41:38.480Z,9.79
2023-05-05T02:44:12.378Z,9.78
2023-05-05T02:46:40.853Z,10.12
2023-05-05T02:49:07.964Z,10.50
2023-05-05T02:51:37.381Z,10.71
2023-05-05T02:54:09.764Z,11.10
2023-05-05T02:56:48.337Z,11.20
2023-05-05T02:59:18.508Z,11.87
2023-05-05T03:02:03.610Z,12.04
2023-05-05T03:04:43.351Z,12.28
2023-05-05T03:07:14.025Z,12.61
2023-05-05T03:10:12.523Z,12.75
2023-05-05T03:12:59.071Z,12.69
2023-05-05T03:15:47.227Z,13.23
2023-05-05T03:18:17.371Z,13.57
2023-05-05T03:20:49.017Z,14.18
2023-05-05T03:23:22.730Z,14.02
2023-05-05T03:25:55.131Z,14.01
2023-05-05T03:28:39.246Z,14.38
2023-05-05T03:31:28.469Z,14.03
2023-05-05T03:33:59.136Z,14.36
2023-05-05T03:36:31.848Z,14.41
2023-05-05T03:39:00.098Z,14.27
2023-05-05T03:41:31.061Z,14.72
2023-05-05T03:43:58.302Z,14.44
2023-05-05T03:46:26.609Z,14.44
2023-05-05T03:48:56.754Z,14.43
2023-05-05T03:51:25.623Z,14.41
2023-05-05T03:53:53.414Z,14.42
2023-05-05T03:56:21.226Z,14.10
2023-05-05T03:58:48.266Z,14.29
2023-05-05T04:01:15.624Z,14.19
2023-05-05T04:03:42.986Z,14.73
2023-05-05T04:06:10.301Z,14.76
2023-05-05T04:08:38.103Z,14.83
2023-05-05T04:11:05.599Z,14.52
2023-05-05T04:13:34.284Z,14.50
2023-05-05T04:16:02.885Z,14.63
2023-05-05T04:18:29.974Z,14.67
2023-05-05T04:20:57.462Z,14.79
2023-05-05T04:23:25.009Z,14.22
2023-05-05T04:25:52.280Z,14.48
2023-05-05T04:28:21.610Z,14.75
2023-05-05T04:30:49.413Z,14.92
2023-05-05T04:33:16.956Z,14.41
2023-05-05T04:35:45.940Z,14.64
2023-05-05T04:38:13.612Z,14.62
2023-05-05T04:40:41.237Z,14.82
2023-05-05T04:43:09.757Z,14.55
2023-05-05T04:45:37.234Z,14.52
2023-05-05T04:48:06.057Z,14.85
2023-05-05T04:50:33.444Z,14.94
2023-05-05T04:53:01.061Z,14.84
2023-05-05T04:55:28.581Z,15.11
2023-05-05T04:57:55.586Z,14.74
2023-05-05T05:00:23.968Z,14.75
2023-05-05T05:02:52.886Z,15.17
2023-05-05T05:05:21.334Z,15.36
2023-05-05T05:07:48.373Z,15.05
2023-05-05T05:10:15.614Z,14.91
2023-05-05T05:12:43.676Z,14.76
2023-05-05T05:15:11.385Z,14.61
2023-05-05T05:17:39.194Z,15.09
2023-05-05T05:20:10.191Z,15.25
2023-05-05T05:22:38.983Z,15.23
2023-05-05T05:25:10.769Z,15.76
2023-05-05T05:27:38.719Z,15.84
2023-05-05T05:30:07.084Z,15.96
2023-05-05T05:32:35.393Z,15.62
2023-05-05T05:35:03.442Z,15.62
2023-05-05T05:37:31.376Z,15.81
2023-05-05T05:39:59.778Z,15.67
2023-05-05T05:42:29.839Z,15.71
2023-05-05T05:44:58.754Z,15.38
2023-05-05T05:47:26.615Z,15.20
2023-05-05T05:49:55.870Z,14.95
2023-05-05T05:52:23.076Z,14.69
2023-05-05T05:54:50.955Z,14.62
2023-05-05T05:57:18.774Z,14.14
2023-05-05T05:59:46.151Z,14.40
2023-05-05T06:02:14.062Z,14.14
2023-05-05T06:04:41.728Z,14.38
2023-05-05T06:07:10.552Z,14.51
2023-05-05T06:09:41.470Z,14.52
2023-05-05T06:12:09.192Z,14.69
2023-05-05T06:14:36.657Z,14.49
2023-05-05T06:17:03.914Z,14.92
2023-05-05T06:19:34.101Z,14.77
2023-05-05T06:22:01.772Z,14.75
2023-05-05T06:24:29.007Z,15.29
2023-05-05T06:26:57.496Z,15.26
2023-05-05T06:29:25.885Z,15.26
2023-05-05T06:31:53.025Z,15.38
2023-05-05T06:34:20.548Z,15.08
2023-05-05T06:36:47.884Z,15.11
2023-05-05T06:39:16.147Z,15.04
2023-05-05T06:41:43.672Z,15.20
2023-05-05T06:44:11.449Z,16.30
2023-05-05T06:46:38.889Z,15.13
2023-05-05T06:49:06.438Z,14.95
2023-05-05T06:51:33.949Z,15.48
2023-05-05T06:54:01.094Z,15.55
2023-05-05T06:56:28.624Z,15.82
2023-05-05T06:58:55.659Z,15.45
2023-05-05T07:01:23.341Z,15.25
2023-05-05T07:03:52.045Z,14.92
2023-05-05T07:06:19.061Z,14.61
2023-05-05T07:08:46.956Z,14.88
2023-05-05T07:11:14.619Z,14.66
2023-05-05T07:13:42.317Z,15.01
2023-05-05T07:16:09.794Z,15.74
2023-05-05T07:18:36.997Z,15.27
2023-05-05T07:21:06.354Z,14.85
2023-05-05T07:23:34.050Z,14.88
2023-05-05T07:26:01.678Z,15.49
2023-05-05T07:28:29.055Z,15.29
2023-05-05T07:30:56.420Z,15.24
2023-05-05T07:33:23.466Z,15.19
2023-05-05T07:35:50.759Z,15.22
2023-05-05T07:38:18.474Z,14.90
2023-05-05T07:40:46.268Z,14.51
2023-05-05T07:43:13.747Z,14.76
2023-05-05T07:45:41.451Z,14.86
2023-05-05T07:48:08.961Z,14.57
2023-05-05T07:50:35.998Z,14.71
2023-05-05T07:53:13.585Z,14.55
2023-05-05T07:55:41.992Z,14.27
2023-05-05T07:58:11.152Z,14.60
2023-05-05T08:00:38.740Z,14.59
2023-05-05T08:03:07.158Z,14.29
2023-05-05T08:05:36.963Z,14.34
2023-05-05T08:08:05.874Z,14.13
2023-05-05T08:10:33.279Z,14.23
2023-05-05T08:13:00.649Z,14.53
2023-05-05T08:15:27.829Z,14.18
2023-05-05T08:17:57.910Z,14.39
2023-05-05T08:20:28.467Z,14.83
2023-05-05T08:22:55.972Z,14.73
2023-05-05T08:25:23.299Z,14.54
2023-05-05T08:27:50.844Z,14.94
2023-05-05T08:30:27.616Z,14.60
2023-05-05T08:32:54.979Z,14.57
2023-05-05T08:35:22.578Z,15.04
2023-05-05T08:37:51.666Z,15.16
2023-05-05T08:40:20.521Z,14.74
2023-05-05T08:42:48.030Z,14.65
2023-05-05T08:45:15.889Z,14.69
2023-05-05T08:47:43.617Z,14.83
2023-05-05T08:50:11.795Z,14.98
2023-05-05T08:52:40.721Z,15.37
2023-05-05T08:55:24.414Z,15.34
2023-05-05T08:57:54.487Z,14.77
2023-05-05T09:00:22.116Z,14.82
2023-05-05T09:02:49.350Z,14.86
2023-05-05T09:05:17.810Z,14.92
2023-05-05T09:07:45.288Z,14.94
2023-05-05T09:10:12.808Z,14.76
2023-05-05T09:12:43.156Z,14.74
2023-05-05T09:15:14.240Z,14.92
2023-05-05T09:17:41.525Z,15.00
2023-05-05T09:20:10.609Z,15.06
2023-05-05T09:22:44.772Z,15.07
2023-05-05T09:25:13.839Z,15.25
2023-05-05T09:27:42.659Z,15.33
2023-05-05T09:30:14.150Z,15.05
2023-05-05T09:32:48.652Z,15.15
2023-05-05T09:35:16.167Z,15.46
2023-05-05T09:37:43.268Z,15.37
2023-05-05T09:40:12.512Z,15.18
2023-05-05T09:42:39.925Z,15.51
2023-05-05T09:45:19.100Z,15.51
2023-05-05T09:47:46.976Z,15.56
2023-05-05T09:50:15.651Z,15.19
2023-05-05T09:52:43.256Z,15.51
2023-05-05T09:55:19.520Z,15.80
2023-05-05T09:57:47.180Z,15.56
2023-05-05T10:00:14.829Z,15.85
2023-05-05T10:02:42.198Z,15.70
2023-05-05T10:05:16.952Z,15.78
2023-05-05T10:07:45.394Z,15.77
2023-05-05T10:10:16.581Z,15.98
2023-05-05T10:12:45.857Z,15.77
2023-05-05T10:15:13.961Z,16.00
2023-05-05T10:18:05.252Z,16.05
2023-05-05T10:20:36.271Z,16.41
2023-05-05T10:23:03.516Z,16.40
2023-05-05T10:25:33.836Z,16.37
2023-05-05T10:28:01.459Z,16.42
2023-05-05T10:30:32.240Z,16.06
2023-05-05T10:33:30.310Z,15.80
2023-05-05T10:36:01.048Z,15.81
2023-05-05T10:38:30.551Z,15.79
2023-05-05T10:40:59.352Z,16.03
2023-05-05T10:43:28.016Z,16.02
2023-05-05T10:45:55.681Z,15.82
2023-05-05T10:48:35.736Z,16.00
2023-05-05T10:51:30.945Z,15.75
2023-05-05T10:54:15.264Z,16.02
2023-05-05T10:56:42.536Z,15.88
2023-05-05T10:59:38.382Z,15.88
2023-05-05T11:02:30.216Z,16.05
2023-05-05T11:05:22.810Z,16.03
2023-05-05T11:07:51.013Z,16.32
2023-05-05T11:10:23.531Z,16.07
2023-05-05T11:13:02.617Z,15.91
2023-05-05T11:15:30.392Z,16.00
2023-05-05T11:17:58.556Z,16.30
2023-05-05T11:20:40.912Z,16.22
2023-05-05T11:23:08.232Z,16.18
2023-05-05T11:25:38.746Z,16.08
2023-05-05T11:28:18.707Z,16.17
2023-05-05T11:30:54.990Z,16.47
2023-05-05T11:33:32.218Z,16.46
2023-05-05T11:36:07.136Z,16.29
2023-05-05T11:38:59.463Z,16.70
2023-05-05T11:41:32.785Z,17.11
2023-05-05T11:44:16.194Z,16.88
2023-05-05T11:46:52.665Z,16.88
2023-05-05T11:49:35.549Z,17.04
2023-05-05T11:52:10.158Z,17.25
2023-05-05T11:54:42.085Z,17.31
2023-05-05T11:57:09.801Z,17.22
2023-05-05T11:59:51.350Z,17.39
2023-05-05T12:02:19.147Z,17.23
2023-05-05T12:04:46.911Z,17.22
2023-05-05T12:07:18.220Z,17.24
2023-05-05T12:09:46.620Z,17.08
2023-05-05T12:12:14.534Z,17.42
2023-05-05T12:14:51.422Z,17.35
2023-05-05T12:17:22.343Z,17.56
2023-05-05T12:19:51.474Z,17.38
2023-05-05T12:22:25.897Z,17.57
2023-05-05T12:25:02.685Z,17.45
2023-05-05T12:27:30.066Z,17.38
2023-05-05T12:30:10.840Z,17.75
2023-05-05T12:32:38.624Z,17.82
2023-05-05T12:35:07.464Z,17.93
2023-05-05T12:37:34.560Z,17.88
2023-05-05T12:40:02.134Z,18.28
2023-05-05T12:42:29.475Z,18.47
2023-05-05T12:44:57.203Z,18.47
2023-05-05T12:47:31.460Z,18.55
2023-05-05T12:50:00.321Z,18.83
2023-05-05T12:52:43.766Z,18.96
2023-05-05T12:55:11.061Z,19.01
2023-05-05T12:57:38.923Z,19.16
2023-05-05T13:00:24.608Z,18.90
2023-05-05T13:02:52.801Z,19.26
2023-05-05T13:05:31.109Z,19.73
2023-05-05T13:07:58.595Z,19.76
2023-05-05T13:10:26.722Z,20.40
2023-05-05T13:13:00.216Z,19.73
2023-05-05T13:15:27.646Z,20.30
2023-05-05T13:18:01.620Z,20.23
2023-05-05T13:20:28.901Z,20.04
2023-05-05T13:22:56.991Z,20.08
2023-05-05T13:25:24.551Z,20.88
2023-05-05T13:27:51.851Z,20.29
2023-05-05T13:30:20.418Z,20.80
2023-05-05T13:32:48.193Z,20.72
2023-05-05T13:35:16.808Z,20.88
2023-05-05T13:37:45.707Z,21.32
2023-05-05T13:40:13.884Z,21.11
2023-05-05T13:42:41.176Z,21.53
2023-05-05T13:45:09.149Z,21.11
2023-05-05T13:47:36.877Z,21.50
2023-05-05T13:50:04.354Z,21.59
2023-05-05T13:52:32.992Z,21.54
2023-05-05T13:55:00.772Z,21.75
2023-05-05T13:57:28.117Z,21.54
2023-05-05T13:59:55.098Z,21.83
2023-05-05T14:02:22.625Z,22.19
2023-05-05T14:04:49.776Z,21.79
2023-05-05T14:07:17.116Z,21.76
2023-05-05T14:09:44.185Z,21.66
2023-05-05T14:12:12.017Z,21.37
2023-05-05T14:14:40.205Z,21.65
2023-05-05T14:17:07.294Z,21.48
2023-05-05T14:19:34.538Z,22.02
2023-05-05T14:22:01.708Z,22.09
2023-05-05T14:24:29.340Z,22.25
2023-05-05T14:26:56.542Z,21.89
2023-05-05T14:29:24.187Z,22.12
2023-05-05T14:31:52.355Z,21.78
2023-05-05T14:34:19.876Z,22.43
2023-05-05T14:36:47.315Z,22.22
2023-05-05T14:39:14.696Z,21.87
2023-05-05T14:41:41.779Z,22.58
2023-05-05T14:44:09.071Z,22.78
2023-05-05T14:46:36.486Z,23.00
2023-05-05T14:49:03.942Z,22.64
2023-05-05T14:51:32.166Z,22.96
2023-05-05T14:53:59.632Z,22.37
2023-05-05T14:56:28.062Z,22.92
2023-05-05T14:58:55.201Z,22.66
2023-05-05T15:01:24.476Z,23.12
2023-05-05T15:03:53.680Z,22.94
2023-05-05T15:06:21.597Z,22.74
2023-05-05T15:08:48.882Z,23.21
2023-05-05T15:11:16.168Z,23.44
2023-05-05T15:13:43.132Z,23.00
2023-05-05T15:16:10.794Z,23.18
2023-05-05T15:18:38.326Z,23.64
2023-05-05T15:21:05.602Z,23.15
2023-05-05T15:23:32.671Z,22.71
2023-05-05T15:25:59.998Z,22.93
2023-05-05T15:28:27.518Z,23.17
2023-05-05T15:30:54.786Z,22.70
2023-05-05T15:33:22.179Z,22.50
2023-05-05T15:35:49.539Z,22.74
2023-05-05T15:38:16.866Z,23.29
2023-05-05T15:40:44.379Z,23.28
2023-05-05T15:43:12.061Z,22.81
2023-05-05T15:45:40.942Z,23.52
2023-05-05T15:48:08.310Z,23.52
2023-05-05T15:50:35.936Z,23.27
2023-05-05T15:53:05.742Z,23.58
2023-05-05T15:55:33.155Z,23.43
2023-05-05T15:58:01.123Z,23.34
2023-05-05T16:00:28.153Z,23.13
2023-05-05T16:02:55.778Z,23.20
2023-05-05T16:05:23.237Z,22.97
2023-05-05T16:07:51.733Z,22.39
2023-05-05T16:10:20.564Z,23.29
2023-05-05T16:12:48.134Z,22.54
2023-05-05T16:15:15.499Z,23.34
2023-05-05T16:17:42.719Z,23.13
2023-05-05T16:20:11.226Z,23.55
2023-05-05T16:22:38.589Z,24.14
2023-05-05T16:25:06.679Z,24.71
2023-05-05T16:27:34.085Z,24.26
2023-05-05T16:30:01.750Z,25.34
2023-05-05T16:32:29.116Z,25.11
2023-05-05T16:34:56.994Z,25.44
2023-05-05T16:37:24.258Z,25.45
2023-05-05T16:39:51.729Z,25.48
2023-05-05T16:42:20.204Z,25.15
2023-05-05T16:44:47.123Z,25.29
2023-05-05T16:47:14.502Z,25.18
2023-05-05T16:49:41.704Z,25.49
2023-05-05T16:52:08.774Z,25.43
2023-05-05T16:54:35.930Z,25.48
2023-05-05T16:57:03.832Z,24.95
2023-05-05T16:59:31.685Z,25.24
2023-05-05T17:01:59.264Z,25.33
2023-05-05T17:04:26.665Z,25.78
2023-05-05T17:06:55.032Z,25.59
2023-05-05T17:09:24.733Z,25.12
2023-05-05T17:11:52.506Z,25.73
2023-05-05T17:14:19.971Z,25.65
2023-05-05T17:16:47.461Z,25.88
2023-05-05T17:19:14.687Z,25.60
2023-05-05T17:21:42.937Z,25.96
2023-05-05T17:24:10.305Z,25.78
2023-05-05T17:26:38.574Z,25.46
2023-05-05T17:29:05.599Z,25.51
2023-05-05T17:31:32.729Z,25.36
2023-05-05T17:34:00.406Z,25.66
2023-05-05T17:36:27.476Z,25.48
2023-05-05T17:38:54.550Z,25.27
2023-05-05T17:41:21.808Z,26.14
2023-05-05T17:43:49.134Z,25.68
2023-05-05T17:46:16.551Z,25.77
2023-05-05T17:48:44.022Z,25.22
2023-05-05T17:51:11.759Z,25.32
2023-05-05T17:53:39.372Z,25.80
2023-05-05T17:56:08.717Z,25.20
2023-05-05T17:58:36.535Z,25.32
2023-05-05T18:01:04.107Z,26.45
2023-05-05T18:03:31.686Z,25.96
2023-05-05T18:05:58.767Z,26.78
2023-05-05T18:08:26.659Z,26.20
2023-05-05T18:10:54.214Z,26.59
2023-05-05T18:13:21.698Z,26.99
2023-05-05T18:15:49.398Z,26.35
2023-05-05T18:18:16.457Z,26.89
2023-05-05T18:20:43.781Z,26.94
2023-05-05T18:23:11.060Z,27.05
2023-05-05T18:25:38.188Z,27.15
2023-05-05T18:28:05.303Z,27.49
2023-05-05T18:30:32.735Z,26.91
2023-05-05T18:33:00.235Z,27.37
2023-05-05T18:35:28.482Z,27.38
2023-05-05T18:37:55.571Z,27.09
2023-05-05T18:40:22.554Z,27.07
2023-05-05T18:42:49.988Z,27.32
2023-05-05T18:45:17.100Z,27.13
2023-05-05T18:47:44.335Z,27.01
2023-05-05T18:50:12.543Z,27.22
2023-05-05T18:52:39.544Z,27.52
2023-05-05T18:55:07.569Z,27.03
2023-05-05T18:57:35.170Z,27.33
2023-05-05T19:00:02.203Z,27.47
2023-05-05T19:02:29.282Z,27.61
2023-05-05T19:04:56.827Z,27.60
2023-05-05T19:07:34.235Z,27.76
2023-05-05T19:10:03.149Z,27.92
2023-05-05T19:12:30.699Z,27.85
2023-05-05T19:14:57.713Z,27.86
2023-05-05T19:17:25.222Z,27.70
2023-05-05T19:19:52.652Z,27.58
2023-05-05T19:22:22.751Z,27.69
2023-05-05T19:24:49.967Z,27.45
2023-05-05T19:27:17.203Z,27.55
2023-05-05T19:29:44.998Z,27.31
2023-05-05T19:32:12.624Z,27.15
2023-05-05T19:34:42.075Z,27.73
2023-05-05T19:37:09.666Z,27.96
2023-05-05T19:39:37.446Z,27.67
2023-05-05T19:42:04.605Z,27.77
2023-05-05T19:44:32.034Z,27.98
2023-05-05T19:46:59.003Z,27.74
2023-05-05T19:49:26.419Z,27.50
2023-05-05T19:51:54.098Z,27.58
2023-05-05T19:54:21.364Z,27.84
2023-05-05T19:56:49.129Z,27.49
2023-05-05T19:59:16.855Z,27.39
2023-05-05T20:01:43.876Z,28.04
2023-05-05T20:04:11.239Z,28.40
2023-05-05T20:06:38.604Z,28.19
2023-05-05T20:09:06.114Z,27.85
2023-05-05T20:11:33.458Z,28.39
2023-05-05T20:14:00.720Z,28.14
2023-05-05T20:16:28.126Z,28.58
2023-05-05T20:18:55.669Z,28.02
2023-05-05T20:21:23.050Z,28.70
2023-05-05T20:23:50.576Z,28.77
2023-05-05T20:26:18.622Z,28.85
2023-05-05T20:28:45.961Z,28.80
2023-05-05T20:31:13.993Z,28.84
2023-05-05T20:33:41.100Z,28.56
2023-05-05T20:36:08.606Z,28.81
2023-05-05T20:38:35.642Z,28.83
2023-05-05T20:41:03.380Z,28.53
2023-05-05T20:43:31.109Z,28.87
2023-05-05T20:45:58.643Z,28.41
2023-05-05T20:48:25.876Z,28.54
2023-05-05T20:50:53.528Z,28.00
2023-05-05T20:53:24.314Z,28.53
2023-05-05T20:55:51.652Z,28.96
2023-05-05T20:58:19.085Z,28.71
2023-05-05T21:00:46.249Z,28.62
2023-05-05T21:03:13.860Z,28.25
2023-05-05T21:05:41.185Z,28.53
2023-05-05T21:08:08.390Z,28.86
2023-05-05T21:10:36.185Z,28.69
2023-05-05T21:13:03.620Z,29.02
2023-05-05T21:15:31.553Z,28.65
2023-05-05T21:17:59.070Z,28.73
2023-05-05T21:20:26.697Z,29.27
2023-05-05T21:22:53.722Z,28.99
2023-05-05T21:25:21.736Z,28.69
2023-05-05T21:27:49.010Z,28.59
2023-05-05T21:30:16.645Z,28.96
2023-05-05T21:32:44.321Z,29.13
2023-05-05T21:35:11.548Z,28.80
2023-05-05T21:37:39.561Z,29.27
2023-05-05T21:40:10.506Z,29.10
2023-05-05T21:42:37.955Z,29.25
2023-05-05T21:45:05.328Z,29.26
2023-05-05T21:47:32.453Z,28.89
2023-05-05T21:49:59.520Z,28.85
2023-05-05T21:52:27.160Z,29.04
2023-05-05T21:54:54.497Z,28.62
2023-05-05T21:57:21.585Z,28.92
2023-05-05T21:59:48.682Z,28.90
2023-05-05T22:02:15.996Z,28.49
2023-05-05T22:10:16.548Z,28.65
2023-05-05T22:12:43.661Z,28.61
2023-05-05T22:15:11.757Z,28.55
2023-05-05T22:17:39.370Z,28.44
2023-05-05T22:20:09.012Z,28.38
2023-05-05T22:22:36.814Z,28.66
2023-05-05T22:25:05.095Z,28.39
2023-05-05T22:27:32.770Z,29.02
2023-05-05T22:30:00.487Z,29.23
2023-05-05T22:32:27.854Z,28.76
2023-05-05T22:34:55.118Z,29.11
2023-05-05T22:37:23.194Z,29.29
2023-05-05T22:39:50.413Z,28.92
2023-05-05T22:42:18.098Z,28.64
2023-05-05T22:44:45.138Z,29.00
2023-05-05T22:47:13.096Z,28.85
2023-05-05T22:49:40.224Z,28.64
2023-05-05T22:52:08.356Z,28.55
2023-05-05T22:54:35.470Z,28.70
2023-05-05T22:57:03.834Z,28.87
2023-05-05T22:59:30.888Z,29.05
2023-05-05T23:01:57.991Z,29.35
2023-05-05T23:04:25.299Z,29.02
2023-05-05T23:06:52.771Z,29.32
2023-05-05T23:09:19.770Z,29.54
2023-05-05T23:11:46.858Z,29.58
2023-05-05T23:14:14.035Z,29.80
2023-05-05T23:16:41.218Z,29.72
2023-05-05T23:19:09.094Z,29.89
2023-05-05T23:21:45.445Z,29.97
2023-05-05T23:24:20.185Z,29.89
2023-05-05T23:26:47.652Z,29.35
2023-05-05T23:29:14.645Z,30.21
2023-05-05T23:31:42.232Z,30.21
2023-05-05T23:34:09.485Z,30.14
2023-05-05T23:36:36.525Z,30.17
2023-05-05T23:39:04.204Z,30.11
2023-05-05T23:41:31.367Z,30.31
2023-05-05T23:43:58.505Z,30.01
2023-05-05T23:46:26.264Z,29.82
2023-05-05T23:48:54.611Z,29.77
2023-05-05T23:51:21.940Z,29.06
2023-05-05T23:53:49.292Z,28.41
2023-05-05T23:56:16.439Z,27.77
2023-05-05T23:58:44.112Z,27.22
